sensor_id;sensor_type;location;lat;lon;timestamp;temperature;humidity
78611;SHT30;67932;50.474;4.436;2023-07-02T00:01:45;15.24;78.73
78611;SHT30;67932;50.474;4.436;2023-07-02T00:04:13;15.30;78.53
78611;SHT30;67932;50.474;4.436;2023-07-02T00:06:48;15.28;78.73
78611;SHT30;67932;50.474;4.436;2023-07-02T00:09:15;15.32;78.61
78611;SHT30;67932;50.474;4.436;2023-07-02T00:11:44;15.30;78.91
78611;SHT30;67932;50.474;4.436;2023-07-02T00:14:14;15.32;78.96
78611;SHT30;67932;50.474;4.436;2023-07-02T00:16:44;15.27;79.13
78611;SHT30;67932;50.474;4.436;2023-07-02T00:19:16;15.31;79.13
78611;SHT30;67932;50.474;4.436;2023-07-02T00:21:44;15.26;79.31
78611;SHT30;67932;50.474;4.436;2023-07-02T00:24:10;15.28;79.49
78611;SHT30;67932;50.474;4.436;2023-07-02T00:26:37;15.30;79.32
78611;SHT30;67932;50.474;4.436;2023-07-02T00:29:05;15.30;79.47
78611;SHT30;67932;50.474;4.436;2023-07-02T00:31:32;15.26;79.64
78611;SHT30;67932;50.474;4.436;2023-07-02T00:33:59;15.24;79.49
78611;SHT30;67932;50.474;4.436;2023-07-02T00:36:30;15.24;79.82
78611;SHT30;67932;50.474;4.436;2023-07-02T00:38:57;15.21;79.98
78611;SHT30;67932;50.474;4.436;2023-07-02T00:41:24;15.14;80.11
78611;SHT30;67932;50.474;4.436;2023-07-02T00:43:52;15.11;80.29
78611;SHT30;67932;50.474;4.436;2023-07-02T00:46:21;15.08;80.38
78611;SHT30;67932;50.474;4.436;2023-07-02T00:48:49;15.00;80.58
78611;SHT30;67932;50.474;4.436;2023-07-02T00:51:20;14.97;80.78
78611;SHT30;67932;50.474;4.436;2023-07-02T00:53:48;15.00;80.85
78611;SHT30;67932;50.474;4.436;2023-07-02T00:56:15;15.00;80.80
78611;SHT30;67932;50.474;4.436;2023-07-02T00:58:42;14.97;80.90
78611;SHT30;67932;50.474;4.436;2023-07-02T01:01:23;14.94;81.12
78611;SHT30;67932;50.474;4.436;2023-07-02T01:04:05;14.91;81.17
78611;SHT30;67932;50.474;4.436;2023-07-02T01:06:33;14.96;81.09
78611;SHT30;67932;50.474;4.436;2023-07-02T01:09:05;14.91;81.43
78611;SHT30;67932;50.474;4.436;2023-07-02T01:11:43;14.87;81.58
78611;SHT30;67932;50.474;4.436;2023-07-02T01:16:56;14.83;81.90
78611;SHT30;67932;50.474;4.436;2023-07-02T01:19:50;14.84;81.92
78611;SHT30;67932;50.474;4.436;2023-07-02T01:22:21;14.79;82.22
78611;SHT30;67932;50.474;4.436;2023-07-02T01:24:49;14.81;82.21
78611;SHT30;67932;50.474;4.436;2023-07-02T01:27:17;14.79;82.29
78611;SHT30;67932;50.474;4.436;2023-07-02T01:29:44;14.73;82.48
78611;SHT30;67932;50.474;4.436;2023-07-02T01:32:14;14.76;82.80
78611;SHT30;67932;50.474;4.436;2023-07-02T01:34:40;14.67;82.79
78611;SHT30;67932;50.474;4.436;2023-07-02T01:37:07;14.65;83.04
78611;SHT30;67932;50.474;4.436;2023-07-02T01:39:35;14.65;83.25
78611;SHT30;67932;50.474;4.436;2023-07-02T01:42:13;14.60;83.51
78611;SHT30;67932;50.474;4.436;2023-07-02T01:44:45;14.62;83.63
78611;SHT30;67932;50.474;4.436;2023-07-02T01:47:12;14.57;83.80
78611;SHT30;67932;50.474;4.436;2023-07-02T01:49:38;14.55;84.14
78611;SHT30;67932;50.474;4.436;2023-07-02T01:52:05;14.56;84.12
78611;SHT30;67932;50.474;4.436;2023-07-02T01:54:33;14.50;84.35
78611;SHT30;67932;50.474;4.436;2023-07-02T01:56:59;14.50;84.45
78611;SHT30;67932;50.474;4.436;2023-07-02T01:59:26;14.49;84.52
78611;SHT30;67932;50.474;4.436;2023-07-02T02:01:52;14.45;84.78
78611;SHT30;67932;50.474;4.436;2023-07-02T02:04:19;14.45;84.77
78611;SHT30;67932;50.474;4.436;2023-07-02T02:06:45;14.42;84.90
78611;SHT30;67932;50.474;4.436;2023-07-02T02:09:11;14.37;85.06
78611;SHT30;67932;50.474;4.436;2023-07-02T02:11:40;14.40;85.16
78611;SHT30;67932;50.474;4.436;2023-07-02T02:14:06;14.36;85.39
78611;SHT30;67932;50.474;4.436;2023-07-02T02:16:33;14.33;85.45
78611;SHT30;67932;50.474;4.436;2023-07-02T02:19:02;14.33;85.61
78611;SHT30;67932;50.474;4.436;2023-07-02T02:21:28;14.36;85.60
78611;SHT30;67932;50.474;4.436;2023-07-02T02:23:55;14.33;85.75
78611;SHT30;67932;50.474;4.436;2023-07-02T02:26:22;14.30;86.03
78611;SHT30;67932;50.474;4.436;2023-07-02T02:28:49;14.29;85.95
78611;SHT30;67932;50.474;4.436;2023-07-02T02:31:16;14.22;86.33
78611;SHT30;67932;50.474;4.436;2023-07-02T02:33:43;14.25;86.35
78611;SHT30;67932;50.474;4.436;2023-07-02T02:36:09;14.29;86.30
78611;SHT30;67932;50.474;4.436;2023-07-02T02:38:35;14.26;86.42
78611;SHT30;67932;50.474;4.436;2023-07-02T02:41:03;14.26;86.43
78611;SHT30;67932;50.474;4.436;2023-07-02T02:43:30;14.25;86.53
78611;SHT30;67932;50.474;4.436;2023-07-02T02:45:56;14.19;86.66
78611;SHT30;67932;50.474;4.436;2023-07-02T02:48:22;14.26;86.55
78611;SHT30;67932;50.474;4.436;2023-07-02T02:50:49;14.35;86.48
78611;SHT30;67932;50.474;4.436;2023-07-02T02:53:15;14.30;86.72
78611;SHT30;67932;50.474;4.436;2023-07-02T02:55:41;14.40;86.50
78611;SHT30;67932;50.474;4.436;2023-07-02T02:58:08;14.25;86.73
78611;SHT30;67932;50.474;4.436;2023-07-02T03:00:35;14.25;86.74
78611;SHT30;67932;50.474;4.436;2023-07-02T03:03:02;14.25;86.85
78611;SHT30;67932;50.474;4.436;2023-07-02T03:05:29;14.19;86.87
78611;SHT30;67932;50.474;4.436;2023-07-02T03:07:55;14.26;86.89
78611;SHT30;67932;50.474;4.436;2023-07-02T03:10:21;14.21;86.90
78611;SHT30;67932;50.474;4.436;2023-07-02T03:12:48;14.22;87.05
78611;SHT30;67932;50.474;4.436;2023-07-02T03:15:14;14.21;87.15
78611;SHT30;67932;50.474;4.436;2023-07-02T03:17:41;14.22;87.10
78611;SHT30;67932;50.474;4.436;2023-07-02T03:20:07;14.18;87.27
78611;SHT30;67932;50.474;4.436;2023-07-02T03:22:34;14.30;86.97
78611;SHT30;67932;50.474;4.436;2023-07-02T03:25:00;14.23;87.20
78611;SHT30;67932;50.474;4.436;2023-07-02T03:27:27;14.19;87.27
78611;SHT30;67932;50.474;4.436;2023-07-02T03:29:53;14.13;87.48
78611;SHT30;67932;50.474;4.436;2023-07-02T03:32:19;14.19;87.27
78611;SHT30;67932;50.474;4.436;2023-07-02T03:34:46;14.15;87.47
78611;SHT30;67932;50.474;4.436;2023-07-02T03:37:12;14.18;87.32
78611;SHT30;67932;50.474;4.436;2023-07-02T03:39:38;14.18;87.51
78611;SHT30;67932;50.474;4.436;2023-07-02T03:42:06;14.12;87.58
78611;SHT30;67932;50.474;4.436;2023-07-02T03:44:32;14.16;87.66
78611;SHT30;67932;50.474;4.436;2023-07-02T03:46:58;14.11;87.86
78611;SHT30;67932;50.474;4.436;2023-07-02T03:49:24;14.12;87.72
78611;SHT30;67932;50.474;4.436;2023-07-02T03:51:51;14.11;87.86
78611;SHT30;67932;50.474;4.436;2023-07-02T03:54:17;14.18;87.65
78611;SHT30;67932;50.474;4.436;2023-07-02T03:56:43;14.09;87.82
78611;SHT30;67932;50.474;4.436;2023-07-02T03:59:10;14.11;87.96
78611;SHT30;67932;50.474;4.436;2023-07-02T04:01:36;14.09;87.95
78611;SHT30;67932;50.474;4.436;2023-07-02T04:04:02;14.09;88.05
78611;SHT30;67932;50.474;4.436;2023-07-02T04:06:28;14.04;88.11
78611;SHT30;67932;50.474;4.436;2023-07-02T04:08:55;13.98;88.42
78611;SHT30;67932;50.474;4.436;2023-07-02T04:11:21;14.08;88.13
78611;SHT30;67932;50.474;4.436;2023-07-02T04:13:47;14.05;88.15
78611;SHT30;67932;50.474;4.436;2023-07-02T04:16:13;14.12;88.14
78611;SHT30;67932;50.474;4.436;2023-07-02T04:18:40;14.05;88.14
78611;SHT30;67932;50.474;4.436;2023-07-02T04:21:06;14.13;87.76
78611;SHT30;67932;50.474;4.436;2023-07-02T04:23:32;14.23;87.74
78611;SHT30;67932;50.474;4.436;2023-07-02T04:25:58;14.15;87.52
78611;SHT30;67932;50.474;4.436;2023-07-02T04:28:25;14.06;87.78
78611;SHT30;67932;50.474;4.436;2023-07-02T04:30:51;14.15;87.85
78611;SHT30;67932;50.474;4.436;2023-07-02T04:33:19;14.11;87.74
78611;SHT30;67932;50.474;4.436;2023-07-02T04:35:45;14.12;87.62
78611;SHT30;67932;50.474;4.436;2023-07-02T04:38:11;14.13;87.44
78611;SHT30;67932;50.474;4.436;2023-07-02T04:40:38;14.16;87.26
78611;SHT30;67932;50.474;4.436;2023-07-02T04:43:04;14.08;87.50
78611;SHT30;67932;50.474;4.436;2023-07-02T04:45:32;14.08;87.49
78611;SHT30;67932;50.474;4.436;2023-07-02T04:48:03;14.12;87.62
78611;SHT30;67932;50.474;4.436;2023-07-02T04:50:29;14.09;87.61
78611;SHT30;67932;50.474;4.436;2023-07-02T04:52:55;14.19;87.14
78611;SHT30;67932;50.474;4.436;2023-07-02T04:55:22;14.12;87.45
78611;SHT30;67932;50.474;4.436;2023-07-02T04:57:48;14.21;87.49
78611;SHT30;67932;50.474;4.436;2023-07-02T05:00:15;14.16;87.54
78611;SHT30;67932;50.474;4.436;2023-07-02T05:02:41;14.32;87.11
78611;SHT30;67932;50.474;4.436;2023-07-02T05:05:08;14.21;87.51
78611;SHT30;67932;50.474;4.436;2023-07-02T05:07:34;14.26;87.15
78611;SHT30;67932;50.474;4.436;2023-07-02T05:10:00;14.26;87.16
78611;SHT30;67932;50.474;4.436;2023-07-02T05:12:26;14.35;86.99
78611;SHT30;67932;50.474;4.436;2023-07-02T05:14:53;14.22;87.59
78611;SHT30;67932;50.474;4.436;2023-07-02T05:17:19;14.33;87.10
78611;SHT30;67932;50.474;4.436;2023-07-02T05:19:45;14.33;87.14
78611;SHT30;67932;50.474;4.436;2023-07-02T05:22:11;14.32;87.07
78611;SHT30;67932;50.474;4.436;2023-07-02T05:24:38;14.37;87.10
78611;SHT30;67932;50.474;4.436;2023-07-02T05:27:06;14.30;87.31
78611;SHT30;67932;50.474;4.436;2023-07-02T05:29:32;14.35;87.29
78611;SHT30;67932;50.474;4.436;2023-07-02T05:31:59;14.40;87.40
78611;SHT30;67932;50.474;4.436;2023-07-02T05:34:25;14.40;87.19
78611;SHT30;67932;50.474;4.436;2023-07-02T05:36:51;14.50;86.96
78611;SHT30;67932;50.474;4.436;2023-07-02T05:39:17;14.45;86.75
78611;SHT30;67932;50.474;4.436;2023-07-02T05:41:44;14.56;86.74
78611;SHT30;67932;50.474;4.436;2023-07-02T05:44:10;14.55;86.72
78611;SHT30;67932;50.474;4.436;2023-07-02T05:46:36;14.56;86.57
78611;SHT30;67932;50.474;4.436;2023-07-02T05:49:02;14.55;86.70
78611;SHT30;67932;50.474;4.436;2023-07-02T05:51:29;14.79;86.25
78611;SHT30;67932;50.474;4.436;2023-07-02T05:53:55;14.67;86.36
78611;SHT30;67932;50.474;4.436;2023-07-02T05:56:21;14.77;86.17
78611;SHT30;67932;50.474;4.436;2023-07-02T05:58:49;14.75;86.23
78611;SHT30;67932;50.474;4.436;2023-07-02T06:01:16;14.67;86.40
78611;SHT30;67932;50.474;4.436;2023-07-02T06:03:42;14.67;86.60
78611;SHT30;67932;50.474;4.436;2023-07-02T06:06:11;14.67;86.47
78611;SHT30;67932;50.474;4.436;2023-07-02T06:08:38;14.67;86.53
78611;SHT30;67932;50.474;4.436;2023-07-02T06:11:04;14.80;86.08
78611;SHT30;67932;50.474;4.436;2023-07-02T06:13:30;14.80;85.83
78611;SHT30;67932;50.474;4.436;2023-07-02T06:15:56;14.84;85.76
78611;SHT30;67932;50.474;4.436;2023-07-02T06:18:23;14.94;85.74
78611;SHT30;67932;50.474;4.436;2023-07-02T06:20:50;15.04;85.30
78611;SHT30;67932;50.474;4.436;2023-07-02T06:23:17;15.00;85.27
78611;SHT30;67932;50.474;4.436;2023-07-02T06:25:43;15.07;84.81
78611;SHT30;67932;50.474;4.436;2023-07-02T06:28:10;15.07;84.80
78611;SHT30;67932;50.474;4.436;2023-07-02T06:30:36;15.07;84.86
78611;SHT30;67932;50.474;4.436;2023-07-02T06:33:06;15.19;84.55
78611;SHT30;67932;50.474;4.436;2023-07-02T06:35:32;15.28;84.52
78611;SHT30;67932;50.474;4.436;2023-07-02T06:37:58;15.38;83.95
78611;SHT30;67932;50.474;4.436;2023-07-02T06:40:24;15.50;84.03
78611;SHT30;67932;50.474;4.436;2023-07-02T06:42:50;15.47;83.20
78611;SHT30;67932;50.474;4.436;2023-07-02T06:45:19;15.47;83.81
78611;SHT30;67932;50.474;4.436;2023-07-02T06:47:46;15.65;82.92
78611;SHT30;67932;50.474;4.436;2023-07-02T06:50:12;15.55;82.12
78611;SHT30;67932;50.474;4.436;2023-07-02T06:52:39;15.42;83.10
78611;SHT30;67932;50.474;4.436;2023-07-02T06:55:05;15.50;83.11
78611;SHT30;67932;50.474;4.436;2023-07-02T06:57:31;15.52;83.16
78611;SHT30;67932;50.474;4.436;2023-07-02T06:59:58;15.64;82.42
78611;SHT30;67932;50.474;4.436;2023-07-02T07:02:25;15.64;81.93
78611;SHT30;67932;50.474;4.436;2023-07-02T07:04:52;15.79;81.74
78611;SHT30;67932;50.474;4.436;2023-07-02T07:07:18;15.65;82.04
78611;SHT30;67932;50.474;4.436;2023-07-02T07:09:45;15.65;82.06
78611;SHT30;67932;50.474;4.436;2023-07-02T07:12:11;15.59;82.62
78611;SHT30;67932;50.474;4.436;2023-07-02T07:14:37;15.64;82.34
78611;SHT30;67932;50.474;4.436;2023-07-02T07:17:04;15.65;82.19
78611;SHT30;67932;50.474;4.436;2023-07-02T07:19:31;15.75;81.55
78611;SHT30;67932;50.474;4.436;2023-07-02T07:21:57;15.82;81.69
78611;SHT30;67932;50.474;4.436;2023-07-02T07:24:24;15.88;81.12
78611;SHT30;67932;50.474;4.436;2023-07-02T07:26:50;16.02;80.60
78611;SHT30;67932;50.474;4.436;2023-07-02T07:29:16;16.10;79.67
78611;SHT30;67932;50.474;4.436;2023-07-02T07:31:43;16.17;80.11
78611;SHT30;67932;50.474;4.436;2023-07-02T07:34:09;16.33;78.45
78611;SHT30;67932;50.474;4.436;2023-07-02T07:36:37;16.29;78.58
78611;SHT30;67932;50.474;4.436;2023-07-02T07:39:04;16.27;78.42
78611;SHT30;67932;50.474;4.436;2023-07-02T07:41:30;16.49;77.36
78611;SHT30;67932;50.474;4.436;2023-07-02T07:43:56;16.66;76.50
78611;SHT30;67932;50.474;4.436;2023-07-02T07:46:22;16.73;76.01
78611;SHT30;67932;50.474;4.436;2023-07-02T07:48:49;16.74;76.10
78611;SHT30;67932;50.474;4.436;2023-07-02T07:51:15;16.84;75.38
78611;SHT30;67932;50.474;4.436;2023-07-02T07:53:41;16.85;74.56
78611;SHT30;67932;50.474;4.436;2023-07-02T07:56:08;16.97;74.51
78611;SHT30;67932;50.474;4.436;2023-07-02T07:58:35;16.95;74.32
78611;SHT30;67932;50.474;4.436;2023-07-02T08:01:01;17.04;74.41
78611;SHT30;67932;50.474;4.436;2023-07-02T08:03:27;17.23;73.67
78611;SHT30;67932;50.474;4.436;2023-07-02T08:05:53;17.03;72.40
78611;SHT30;67932;50.474;4.436;2023-07-02T08:08:20;17.04;72.54
78611;SHT30;67932;50.474;4.436;2023-07-02T08:10:46;16.97;72.91
78611;SHT30;67932;50.474;4.436;2023-07-02T08:13:13;17.07;72.54
78611;SHT30;67932;50.474;4.436;2023-07-02T08:15:39;17.03;72.67
78611;SHT30;67932;50.474;4.436;2023-07-02T08:18:05;17.10;72.36
78611;SHT30;67932;50.474;4.436;2023-07-02T08:20:33;17.23;72.96
78611;SHT30;67932;50.474;4.436;2023-07-02T08:22:59;17.42;71.92
78611;SHT30;67932;50.474;4.436;2023-07-02T08:25:25;17.56;71.75
78611;SHT30;67932;50.474;4.436;2023-07-02T08:27:53;17.69;70.34
78611;SHT30;67932;50.474;4.436;2023-07-02T08:30:19;17.82;68.85
78611;SHT30;67932;50.474;4.436;2023-07-02T08:32:46;17.76;70.05
78611;SHT30;67932;50.474;4.436;2023-07-02T08:35:13;17.72;69.44
78611;SHT30;67932;50.474;4.436;2023-07-02T08:37:40;17.93;70.33
78611;SHT30;67932;50.474;4.436;2023-07-02T08:40:14;18.02;67.82
78611;SHT30;67932;50.474;4.436;2023-07-02T08:42:41;17.96;65.82
78611;SHT30;67932;50.474;4.436;2023-07-02T08:45:08;18.03;64.66
78611;SHT30;67932;50.474;4.436;2023-07-02T08:47:36;18.10;63.11
78611;SHT30;67932;50.474;4.436;2023-07-02T08:50:02;18.12;62.49
78611;SHT30;67932;50.474;4.436;2023-07-02T08:52:31;18.52;62.96
78611;SHT30;67932;50.474;4.436;2023-07-02T08:54:57;18.63;63.71
78611;SHT30;67932;50.474;4.436;2023-07-02T08:57:23;18.68;63.89
78611;SHT30;67932;50.474;4.436;2023-07-02T08:59:49;18.22;60.76
78611;SHT30;67932;50.474;4.436;2023-07-02T09:02:17;18.16;62.17
78611;SHT30;67932;50.474;4.436;2023-07-02T09:04:44;18.28;61.67
78611;SHT30;67932;50.474;4.436;2023-07-02T09:07:10;18.29;63.28
78611;SHT30;67932;50.474;4.436;2023-07-02T09:09:48;18.46;64.33
78611;SHT30;67932;50.474;4.436;2023-07-02T09:12:24;18.30;66.65
78611;SHT30;67932;50.474;4.436;2023-07-02T09:14:59;18.29;63.08
78611;SHT30;67932;50.474;4.436;2023-07-02T09:17:30;18.19;66.74
78611;SHT30;67932;50.474;4.436;2023-07-02T09:19:58;18.44;65.95
78611;SHT30;67932;50.474;4.436;2023-07-02T09:22:28;18.70;65.69
78611;SHT30;67932;50.474;4.436;2023-07-02T09:24:56;18.57;65.44
78611;SHT30;67932;50.474;4.436;2023-07-02T09:27:40;18.61;65.00
78611;SHT30;67932;50.474;4.436;2023-07-02T09:30:28;18.30;64.66
78611;SHT30;67932;50.474;4.436;2023-07-02T09:33:06;18.36;65.59
78611;SHT30;67932;50.474;4.436;2023-07-02T09:35:33;18.67;65.17
78611;SHT30;67932;50.474;4.436;2023-07-02T09:38:00;18.87;65.41
78611;SHT30;67932;50.474;4.436;2023-07-02T09:40:26;18.80;64.94
78611;SHT30;67932;50.474;4.436;2023-07-02T09:42:56;18.68;62.43
78611;SHT30;67932;50.474;4.436;2023-07-02T09:45:22;18.46;60.66
78611;SHT30;67932;50.474;4.436;2023-07-02T09:47:52;18.42;61.43
78611;SHT30;67932;50.474;4.436;2023-07-02T09:50:21;18.39;60.66
78611;SHT30;67932;50.474;4.436;2023-07-02T09:52:48;18.59;59.49
78611;SHT30;67932;50.474;4.436;2023-07-02T09:55:15;18.39;60.21
78611;SHT30;67932;50.474;4.436;2023-07-02T09:57:43;18.33;61.07
78611;SHT30;67932;50.474;4.436;2023-07-02T10:00:11;18.32;60.97
78611;SHT30;67932;50.474;4.436;2023-07-02T10:02:37;18.46;61.98
78611;SHT30;67932;50.474;4.436;2023-07-02T10:05:04;18.47;60.83
78611;SHT30;67932;50.474;4.436;2023-07-02T10:07:31;18.52;60.39
78611;SHT30;67932;50.474;4.436;2023-07-02T10:10:01;18.74;61.02
78611;SHT30;67932;50.474;4.436;2023-07-02T10:12:28;18.65;61.10
78611;SHT30;67932;50.474;4.436;2023-07-02T10:14:58;18.90;60.70
78611;SHT30;67932;50.474;4.436;2023-07-02T10:17:29;18.87;59.55
78611;SHT30;67932;50.474;4.436;2023-07-02T10:19:58;18.91;60.32
78611;SHT30;67932;50.474;4.436;2023-07-02T10:22:25;18.97;60.31
78611;SHT30;67932;50.474;4.436;2023-07-02T10:24:53;18.88;60.13
78611;SHT30;67932;50.474;4.436;2023-07-02T10:27:20;18.95;60.53
78611;SHT30;67932;50.474;4.436;2023-07-02T10:29:56;19.17;60.51
78611;SHT30;67932;50.474;4.436;2023-07-02T10:32:28;19.03;59.61
78611;SHT30;67932;50.474;4.436;2023-07-02T10:34:55;18.83;59.90
78611;SHT30;67932;50.474;4.436;2023-07-02T10:37:22;18.74;60.71
78611;SHT30;67932;50.474;4.436;2023-07-02T10:39:48;18.63;61.51
78611;SHT30;67932;50.474;4.436;2023-07-02T10:42:14;18.85;61.26
78611;SHT30;67932;50.474;4.436;2023-07-02T10:44:49;18.98;59.55
78611;SHT30;67932;50.474;4.436;2023-07-02T10:47:16;18.94;60.41
78611;SHT30;67932;50.474;4.436;2023-07-02T10:49:42;19.17;59.44
78611;SHT30;67932;50.474;4.436;2023-07-02T10:52:08;19.18;59.84
78611;SHT30;67932;50.474;4.436;2023-07-02T10:54:44;19.38;59.38
78611;SHT30;67932;50.474;4.436;2023-07-02T10:57:12;19.39;59.37
78611;SHT30;67932;50.474;4.436;2023-07-02T10:59:39;19.14;59.43
78611;SHT30;67932;50.474;4.436;2023-07-02T11:02:07;19.18;59.10
78611;SHT30;67932;50.474;4.436;2023-07-02T11:04:34;19.19;59.96
78611;SHT30;67932;50.474;4.436;2023-07-02T11:07:01;19.15;59.83
78611;SHT30;67932;50.474;4.436;2023-07-02T11:09:28;19.28;60.42
78611;SHT30;67932;50.474;4.436;2023-07-02T11:11:56;19.17;57.21
78611;SHT30;67932;50.474;4.436;2023-07-02T11:14:33;19.42;57.44
78611;SHT30;67932;50.474;4.436;2023-07-02T11:17:06;19.47;58.54
78611;SHT30;67932;50.474;4.436;2023-07-02T11:19:35;19.49;57.46
78611;SHT30;67932;50.474;4.436;2023-07-02T11:22:02;19.57;57.82
78611;SHT30;67932;50.474;4.436;2023-07-02T11:24:35;19.38;58.92
78611;SHT30;67932;50.474;4.436;2023-07-02T11:27:03;19.22;58.59
78611;SHT30;67932;50.474;4.436;2023-07-02T11:29:32;19.15;58.46
78611;SHT30;67932;50.474;4.436;2023-07-02T11:32:09;19.00;59.81
78611;SHT30;67932;50.474;4.436;2023-07-02T11:34:36;18.97;60.37
78611;SHT30;67932;50.474;4.436;2023-07-02T11:37:03;19.01;60.08
78611;SHT30;67932;50.474;4.436;2023-07-02T11:39:31;19.10;60.19
78611;SHT30;67932;50.474;4.436;2023-07-02T11:41:58;19.08;59.47
78611;SHT30;67932;50.474;4.436;2023-07-02T11:44:24;18.97;59.85
78611;SHT30;67932;50.474;4.436;2023-07-02T11:46:52;19.11;60.02
78611;SHT30;67932;50.474;4.436;2023-07-02T11:49:18;19.47;60.05
78611;SHT30;67932;50.474;4.436;2023-07-02T11:51:45;19.57;60.19
78611;SHT30;67932;50.474;4.436;2023-07-02T11:54:15;19.48;60.18
78611;SHT30;67932;50.474;4.436;2023-07-02T11:56:42;19.36;60.71
78611;SHT30;67932;50.474;4.436;2023-07-02T11:59:08;19.29;60.10
78611;SHT30;67932;50.474;4.436;2023-07-02T12:01:35;19.44;60.47
78611;SHT30;67932;50.474;4.436;2023-07-02T12:04:01;19.36;59.63
78611;SHT30;67932;50.474;4.436;2023-07-02T12:06:28;19.22;61.18
78611;SHT30;67932;50.474;4.436;2023-07-02T12:08:54;19.35;61.16
78611;SHT30;67932;50.474;4.436;2023-07-02T12:11:20;19.38;60.08
78611;SHT30;67932;50.474;4.436;2023-07-02T12:13:47;19.52;60.41
78611;SHT30;67932;50.474;4.436;2023-07-02T12:16:13;19.75;58.19
78611;SHT30;67932;50.474;4.436;2023-07-02T12:18:39;19.73;57.43
78611;SHT30;67932;50.474;4.436;2023-07-02T12:21:06;19.41;58.77
78611;SHT30;67932;50.474;4.436;2023-07-02T12:23:32;19.45;58.61
78611;SHT30;67932;50.474;4.436;2023-07-02T12:25:58;19.42;59.18
78611;SHT30;67932;50.474;4.436;2023-07-02T12:28:25;20.78;55.86
78611;SHT30;67932;50.474;4.436;2023-07-02T12:30:51;21.96;52.35
78611;SHT30;67932;50.474;4.436;2023-07-02T12:33:17;21.88;50.97
78611;SHT30;67932;50.474;4.436;2023-07-02T12:35:43;22.83;49.69
78611;SHT30;67932;50.474;4.436;2023-07-02T12:38:10;22.92;49.92
78611;SHT30;67932;50.474;4.436;2023-07-02T12:40:36;22.46;48.30
78611;SHT30;67932;50.474;4.436;2023-07-02T12:43:02;21.08;53.06
78611;SHT30;67932;50.474;4.436;2023-07-02T12:45:28;20.91;53.80
78611;SHT30;67932;50.474;4.436;2023-07-02T12:47:55;20.67;55.09
78611;SHT30;67932;50.474;4.436;2023-07-02T12:50:21;21.32;53.90
78611;SHT30;67932;50.474;4.436;2023-07-02T12:52:47;21.76;53.15
78611;SHT30;67932;50.474;4.436;2023-07-02T12:55:13;22.77;50.92
78611;SHT30;67932;50.474;4.436;2023-07-02T12:57:40;22.48;51.23
78611;SHT30;67932;50.474;4.436;2023-07-02T13:00:06;21.48;53.14
78611;SHT30;67932;50.474;4.436;2023-07-02T13:02:34;21.01;54.19
78611;SHT30;67932;50.474;4.436;2023-07-02T13:05:01;20.54;54.99
78611;SHT30;67932;50.474;4.436;2023-07-02T13:07:27;20.36;54.63
78611;SHT30;67932;50.474;4.436;2023-07-02T13:09:56;20.29;55.38
78611;SHT30;67932;50.474;4.436;2023-07-02T13:12:22;20.60;54.94
78611;SHT30;67932;50.474;4.436;2023-07-02T13:14:48;21.79;53.11
78611;SHT30;67932;50.474;4.436;2023-07-02T13:17:14;21.99;51.69
78611;SHT30;67932;50.474;4.436;2023-07-02T13:19:41;21.53;51.30
78611;SHT30;67932;50.474;4.436;2023-07-02T13:22:08;21.76;51.71
78611;SHT30;67932;50.474;4.436;2023-07-02T13:24:35;21.63;52.27
78611;SHT30;67932;50.474;4.436;2023-07-02T13:27:13;21.61;52.17
78611;SHT30;67932;50.474;4.436;2023-07-02T13:29:40;21.39;52.52
78611;SHT30;67932;50.474;4.436;2023-07-02T13:32:07;21.79;52.98
78611;SHT30;67932;50.474;4.436;2023-07-02T13:34:33;21.61;53.13
78611;SHT30;67932;50.474;4.436;2023-07-02T13:37:00;21.86;52.68
78611;SHT30;67932;50.474;4.436;2023-07-02T13:39:29;23.69;45.03
78611;SHT30;67932;50.474;4.436;2023-07-02T13:41:56;22.95;45.26
78611;SHT30;67932;50.474;4.436;2023-07-02T13:44:22;23.75;45.89
78611;SHT30;67932;50.474;4.436;2023-07-02T13:46:48;23.31;45.60
78611;SHT30;67932;50.474;4.436;2023-07-02T13:49:15;23.41;46.25
78611;SHT30;67932;50.474;4.436;2023-07-02T13:51:41;22.84;48.78
78611;SHT30;67932;50.474;4.436;2023-07-02T13:54:11;22.39;48.82
78611;SHT30;67932;50.474;4.436;2023-07-02T13:56:37;21.97;49.17
78611;SHT30;67932;50.474;4.436;2023-07-02T13:59:04;21.63;51.08
78611;SHT30;67932;50.474;4.436;2023-07-02T14:01:31;21.37;52.40
78611;SHT30;67932;50.474;4.436;2023-07-02T14:03:58;21.61;52.39
78611;SHT30;67932;50.474;4.436;2023-07-02T14:06:24;21.59;51.72
78611;SHT30;67932;50.474;4.436;2023-07-02T14:08:51;21.75;51.55
78611;SHT30;67932;50.474;4.436;2023-07-02T14:11:17;21.38;52.49
78611;SHT30;67932;50.474;4.436;2023-07-02T14:13:44;21.42;52.66
78611;SHT30;67932;50.474;4.436;2023-07-02T14:16:10;21.21;53.07
78611;SHT30;67932;50.474;4.436;2023-07-02T14:18:37;21.51;52.24
78611;SHT30;67932;50.474;4.436;2023-07-02T14:21:03;21.63;50.83
78611;SHT30;67932;50.474;4.436;2023-07-02T14:23:29;22.18;49.98
78611;SHT30;67932;50.474;4.436;2023-07-02T14:25:56;21.99;50.18
78611;SHT30;67932;50.474;4.436;2023-07-02T14:28:22;22.44;49.16
78611;SHT30;67932;50.474;4.436;2023-07-02T14:30:51;22.23;49.20
78611;SHT30;67932;50.474;4.436;2023-07-02T14:33:21;22.43;49.27
78611;SHT30;67932;50.474;4.436;2023-07-02T14:35:47;23.31;46.91
78611;SHT30;67932;50.474;4.436;2023-07-02T14:38:22;24.06;45.37
78611;SHT30;67932;50.474;4.436;2023-07-02T14:40:49;23.02;47.66
78611;SHT30;67932;50.474;4.436;2023-07-02T14:43:15;21.85;49.90
78611;SHT30;67932;50.474;4.436;2023-07-02T14:45:52;21.48;51.66
78611;SHT30;67932;50.474;4.436;2023-07-02T14:48:18;21.17;52.65
78611;SHT30;67932;50.474;4.436;2023-07-02T14:50:56;21.09;52.15
78611;SHT30;67932;50.474;4.436;2023-07-02T14:53:23;21.79;50.91
78611;SHT30;67932;50.474;4.436;2023-07-02T14:55:50;21.73;50.41
78611;SHT30;67932;50.474;4.436;2023-07-02T14:58:17;21.67;50.98
78611;SHT30;67932;50.474;4.436;2023-07-02T15:00:52;21.31;52.69
78611;SHT30;67932;50.474;4.436;2023-07-02T15:03:20;21.78;50.92
78611;SHT30;67932;50.474;4.436;2023-07-02T15:05:49;23.61;47.76
78611;SHT30;67932;50.474;4.436;2023-07-02T15:08:16;23.79;45.91
78611;SHT30;67932;50.474;4.436;2023-07-02T15:10:47;24.29;43.80
78611;SHT30;67932;50.474;4.436;2023-07-02T15:13:14;23.92;44.48
78611;SHT30;67932;50.474;4.436;2023-07-02T15:15:43;24.13;43.87
78611;SHT30;67932;50.474;4.436;2023-07-02T15:18:10;24.75;42.95
78611;SHT30;67932;50.474;4.436;2023-07-02T15:20:36;24.26;42.63
78611;SHT30;67932;50.474;4.436;2023-07-02T15:23:03;24.57;43.80
78611;SHT30;67932;50.474;4.436;2023-07-02T15:25:32;23.14;47.01
78611;SHT30;67932;50.474;4.436;2023-07-02T15:27:59;23.04;46.19
78611;SHT30;67932;50.474;4.436;2023-07-02T15:30:25;22.87;44.02
78611;SHT30;67932;50.474;4.436;2023-07-02T15:32:51;23.02;43.76
78611;SHT30;67932;50.474;4.436;2023-07-02T15:35:18;22.60;45.33